Time;durP1;ratioP1;P1;durP2;ratioP2;P2;SDS_P1;SDS_P2;PMS_P1;PMS_P2;Temp;Humidity;BMP_temperature;BMP_pressure;BME280_temperature;BME280_humidity;BME280_pressure;Samples;Min_cycle;Max_cycle;Signal;HPM_P1;HPM_P2
2023/08/13 04:32:13;;;;;;;0.13;0.10;;;18.10;84.70;;;;;;5018259;23;20142;-78
2023/08/13 04:34:39;;;;;;;0.10;0.10;;;18.10;84.70;;;;;;4885080;29;20362;-78
2023/08/13 04:37:04;;;;;;;0.10;0.10;;;18.10;84.80;;;;;;4885161;29;20021;-77
2023/08/13 04:39:30;;;;;;;0.10;0.10;;;18.10;84.70;;;;;;4885017;29;20029;-78
2023/08/13 04:42:02;;;;;;;0.10;0.10;;;18.10;84.70;;;;;;4885180;29;20081;-77
2023/08/13 04:44:28;;;;;;;0.10;0.10;;;18.10;84.70;;;;;;4885041;29;20060;-77
2023/08/13 04:46:54;;;;;;;0.10;0.10;;;18.00;84.90;;;;;;4890397;29;20381;-77
2023/08/13 04:49:19;;;;;;;0.10;0.03;;;18.00;84.90;;;;;;4903932;29;20028;-77
2023/08/13 04:51:45;;;;;;;0.10;0.10;;;18.00;85.00;;;;;;4903601;29;20129;-77
2023/08/13 04:54:10;;;;;;;0.10;0.10;;;18.00;85.10;;;;;;4902258;29;20484;-77
2023/08/13 04:56:36;;;;;;;0.10;0.10;;;17.90;85.30;;;;;;4903551;29;20028;-77
2023/08/13 04:59:03;;;;;;;0.03;0.03;;;17.90;85.30;;;;;;4903498;29;20024;-77
2023/08/13 05:01:28;;;;;;;0.17;0.17;;;17.90;85.30;;;;;;4902799;29;20032;-78
2023/08/13 05:03:54;;;;;;;0.10;0.10;;;17.80;85.50;;;;;;4903825;29;20443;-78
2023/08/13 05:06:20;;;;;;;0.10;0.10;;;17.80;85.50;;;;;;4903697;29;20065;-78
2023/08/13 05:08:45;;;;;;;0.08;0.08;;;17.80;85.50;;;;;;4910439;29;20028;-78
2023/08/13 05:11:11;;;;;;;0.10;0.10;;;17.90;85.40;;;;;;4922687;29;20039;-78
2023/08/13 05:13:37;;;;;;;0.10;0.10;;;17.90;85.30;;;;;;4922624;29;20028;-77
2023/08/13 05:16:03;;;;;;;0.13;0.13;;;18.00;85.20;;;;;;4905408;29;20031;-78
2023/08/13 05:18:29;;;;;;;0.10;0.10;;;17.90;85.30;;;;;;4922583;29;20028;-78
2023/08/13 05:20:54;;;;;;;0.10;0.10;;;18.00;85.30;;;;;;4905422;29;20032;-78
2023/08/13 05:23:20;;;;;;;0.10;0.10;;;18.00;85.30;;;;;;4922276;29;20107;-77
2023/08/13 05:25:45;;;;;;;0.10;0.10;;;18.00;85.30;;;;;;4916646;29;20025;-78
2023/08/13 05:28:11;;;;;;;0.10;0.10;;;18.00;85.50;;;;;;4884476;29;20048;-77
2023/08/13 05:30:38;;;;;;;0.20;0.20;;;18.00;85.40;;;;;;4884455;29;20397;-78
2023/08/13 05:33:04;;;;;;;0.10;0.10;;;18.00;85.50;;;;;;4898105;29;20084;-78
2023/08/13 05:35:29;;;;;;;0.30;0.10;;;18.00;85.40;;;;;;4903089;29;20518;-77
2023/08/13 05:37:55;;;;;;;0.00;0.00;;;18.00;85.20;;;;;;4903403;29;20109;-77
2023/08/13 05:40:21;;;;;;;0.10;0.10;;;18.00;84.90;;;;;;4903123;29;20088;-78
2023/08/13 05:42:47;;;;;;;0.00;0.00;;;18.00;84.80;;;;;;4886186;29;20123;-78
2023/08/13 05:45:13;;;;;;;0.05;0.05;;;18.00;84.70;;;;;;4903240;29;20396;-77
2023/08/13 05:47:39;;;;;;;0.13;0.05;;;18.00;84.30;;;;;;4903154;29;20076;-78
2023/08/13 05:50:05;;;;;;;0.10;0.10;;;18.10;84.10;;;;;;4903143;29;20021;-78
2023/08/13 05:52:30;;;;;;;0.10;0.10;;;18.10;83.90;;;;;;4902797;29;20024;-78
2023/08/13 05:54:56;;;;;;;0.00;0.00;;;18.20;83.60;;;;;;4902953;29;20032;-78
2023/08/13 05:57:22;;;;;;;0.10;0.10;;;18.20;83.30;;;;;;4903087;29;20031;-78
2023/08/13 05:59:48;;;;;;;0.00;0.00;;;18.30;83.30;;;;;;4902884;29;20025;-78
2023/08/13 06:02:13;;;;;;;0.03;0.03;;;18.30;83.00;;;;;;4895671;29;20031;-78
2023/08/13 06:04:39;;;;;;;0.00;0.00;;;18.30;83.20;;;;;;4867319;29;20552;-78
2023/08/13 06:07:05;;;;;;;0.10;0.10;;;18.30;83.20;;;;;;4867169;29;20029;-78
2023/08/13 06:09:31;;;;;;;0.00;0.00;;;18.30;83.20;;;;;;4884131;29;20085;-78
2023/08/13 06:11:56;;;;;;;0.00;0.00;;;18.30;83.00;;;;;;4867208;29;20396;-77
2023/08/13 06:14:22;;;;;;;0.10;0.10;;;18.40;83.10;;;;;;4883959;29;20033;-77
2023/08/13 06:16:48;;;;;;;0.05;0.05;;;18.50;83.10;;;;;;4884103;29;20401;-77
2023/08/13 06:19:13;;;;;;;0.03;0.03;;;18.60;82.60;;;;;;4884046;29;20033;-77
2023/08/13 06:21:39;;;;;;;0.10;0.10;;;18.60;82.40;;;;;;4883655;29;20032;-77
2023/08/13 06:24:05;;;;;;;0.10;0.10;;;18.60;82.40;;;;;;4883815;29;20039;-77
2023/08/13 06:26:34;;;;;;;0.00;0.00;;;18.60;82.10;;;;;;4883824;29;20080;-78
2023/08/13 06:29:00;;;;;;;0.00;0.00;;;18.60;82.10;;;;;;4883827;29;20025;-78
2023/08/13 06:31:26;;;;;;;0.00;0.00;;;18.70;82.00;;;;;;4883613;29;20053;-77
2023/08/13 06:33:51;;;;;;;0.10;0.10;;;18.70;81.80;;;;;;4883821;29;20037;-77
2023/08/13 06:36:17;;;;;;;0.10;0.10;;;18.80;81.90;;;;;;4866841;29;20504;-77
2023/08/13 06:38:43;;;;;;;0.00;0.00;;;18.80;81.50;;;;;;4883783;29;20029;-78
2023/08/13 06:41:09;;;;;;;0.10;0.10;;;18.90;81.30;;;;;;4883700;29;20085;-78
2023/08/13 06:43:35;;;;;;;0.00;0.00;;;19.00;81.40;;;;;;4883560;29;20112;-78
2023/08/13 06:46:02;;;;;;;0.10;0.10;;;19.10;81.00;;;;;;4883811;29;20112;-78
2023/08/13 06:48:31;;;;;;;0.00;0.00;;;19.20;81.00;;;;;;4883857;29;20029;-78
2023/08/13 06:50:57;;;;;;;0.10;0.10;;;19.20;81.20;;;;;;4883624;29;20032;-77
2023/08/13 06:53:24;;;;;;;0.10;0.10;;;19.20;81.50;;;;;;4900485;29;20029;-77
2023/08/13 06:55:49;;;;;;;0.13;0.10;;;19.20;81.70;;;;;;4902558;29;20107;-77
2023/08/13 06:58:15;;;;;;;0.10;0.10;;;19.20;81.50;;;;;;4902233;29;20083;-77
2023/08/13 07:00:41;;;;;;;0.10;0.10;;;19.30;81.60;;;;;;4902086;29;20032;-77
2023/08/13 07:03:08;;;;;;;0.10;0.10;;;19.30;81.40;;;;;;4902155;29;20061;-77
2023/08/13 07:05:38;;;;;;;0.10;0.10;;;19.30;81.80;;;;;;4902328;29;20044;-77
2023/08/13 07:08:04;;;;;;;0.10;0.10;;;19.30;81.80;;;;;;4902016;29;20025;-77
2023/08/13 07:10:30;;;;;;;0.10;0.10;;;19.30;81.60;;;;;;4902484;29;20029;-77
2023/08/13 07:12:56;;;;;;;0.10;0.10;;;19.30;81.80;;;;;;4902069;29;20104;-77
2023/08/13 07:15:22;;;;;;;0.10;0.10;;;19.50;81.60;;;;;;4902258;29;20452;-77
2023/08/13 07:17:47;;;;;;;0.10;0.10;;;19.60;81.30;;;;;;4902130;29;20435;-77
2023/08/13 07:20:14;;;;;;;0.10;0.10;;;19.70;81.10;;;;;;4916399;29;20060;-77
2023/08/13 07:22:44;;;;;;;0.10;0.10;;;19.70;81.20;;;;;;4920769;29;20028;-77
2023/08/13 07:25:14;;;;;;;0.10;0.10;;;19.70;81.10;;;;;;4922878;29;20034;-77
2023/08/13 07:27:40;;;;;;;0.10;0.10;;;19.80;80.90;;;;;;4924338;29;20079;-77
2023/08/13 07:30:08;;;;;;;0.10;0.10;;;19.90;80.70;;;;;;4923967;29;20481;-77
2023/08/13 07:32:35;;;;;;;0.00;0.00;;;21.00;78.30;;;;;;4914116;29;20035;-77
2023/08/13 07:35:00;;;;;;;0.10;0.10;;;20.90;77.50;;;;;;4885780;29;20035;-78
2023/08/13 07:37:27;;;;;;;0.10;0.10;;;21.20;77.10;;;;;;4905332;29;20116;-77
2023/08/13 07:39:52;;;;;;;0.10;0.10;;;21.30;76.50;;;;;;4905275;29;20021;-77
2023/08/13 07:42:18;;;;;;;0.10;0.10;;;21.50;75.90;;;;;;4905337;29;20092;-78
2023/08/13 07:44:44;;;;;;;0.20;0.20;;;21.80;74.50;;;;;;4888223;29;20029;-78
2023/08/13 07:47:09;;;;;;;0.10;0.10;;;22.50;72.30;;;;;;4905331;29;20056;-78
2023/08/13 07:49:35;;;;;;;0.00;0.00;;;24.30;67.30;;;;;;4905258;29;20024;-78
2023/08/13 07:52:01;;;;;;;0.00;0.00;;;23.80;66.10;;;;;;4905185;29;20029;-78
2023/08/13 07:54:27;;;;;;;0.10;0.10;;;23.30;67.50;;;;;;4888250;29;20032;-77
2023/08/13 07:56:53;;;;;;;0.10;0.10;;;22.90;68.80;;;;;;4905188;29;20052;-78
2023/08/13 07:59:19;;;;;;;0.10;0.10;;;22.60;69.80;;;;;;4905147;29;20036;-78
2023/08/13 08:01:45;;;;;;;0.10;0.10;;;22.70;69.40;;;;;;4901330;29;20061;-78
2023/08/13 08:04:10;;;;;;;0.00;0.00;;;22.50;69.20;;;;;;4886260;29;20040;-78
2023/08/13 08:06:37;;;;;;;0.10;0.10;;;22.40;68.70;;;;;;4886115;29;20029;-78
2023/08/13 08:09:05;;;;;;;0.08;0.08;;;22.30;69.80;;;;;;4869603;29;20025;-77
2023/08/13 08:11:31;;;;;;;0.10;0.10;;;22.40;69.20;;;;;;4886094;29;20552;-77
2023/08/13 08:13:57;;;;;;;0.10;0.10;;;22.30;69.30;;;;;;4869130;29;20026;-77
2023/08/13 08:16:22;;;;;;;0.10;0.10;;;22.20;69.40;;;;;;4869193;29;20036;-77
2023/08/13 08:18:48;;;;;;;0.05;0.05;;;22.30;68.60;;;;;;4886017;29;20040;-77
2023/08/13 08:21:14;;;;;;;0.30;0.30;;;22.60;68.00;;;;;;4885930;29;20043;-78
2023/08/13 08:23:40;;;;;;;0.30;0.30;;;23.50;66.50;;;;;;4885817;29;20097;-78
2023/08/13 08:26:06;;;;;;;0.40;0.40;;;25.20;62.70;;;;;;4868946;29;20033;-78
2023/08/13 08:28:31;;;;;;;0.20;0.20;;;26.80;57.70;;;;;;4885572;29;20064;-78
2023/08/13 08:30:57;;;;;;;0.10;0.10;;;27.50;54.60;;;;;;4885521;29;20497;-78
2023/08/13 08:33:23;;;;;;;0.00;0.00;;;26.40;54.90;;;;;;4868650;29;20025;-78
2023/08/13 08:35:49;;;;;;;0.10;0.10;;;25.40;57.60;;;;;;4867820;29;20037;-78
2023/08/13 08:38:16;;;;;;;0.00;0.00;;;25.30;58.00;;;;;;4885465;29;20053;-78
2023/08/13 08:40:43;;;;;;;0.10;0.10;;;25.20;58.10;;;;;;4868694;29;20441;-78
2023/08/13 08:43:09;;;;;;;0.00;0.00;;;25.20;58.80;;;;;;4885102;29;20029;-78
2023/08/13 08:45:37;;;;;;;0.00;0.00;;;25.30;58.40;;;;;;4885548;29;20085;-78
2023/08/13 08:48:04;;;;;;;0.10;0.10;;;24.70;57.30;;;;;;4885537;29;20025;-78
2023/08/13 08:50:30;;;;;;;0.00;0.00;;;24.50;58.70;;;;;;4885339;29;20391;-78
2023/08/13 08:52:56;;;;;;;0.00;0.00;;;24.10;60.10;;;;;;4885182;29;20029;-78
2023/08/13 08:55:22;;;;;;;0.03;0.03;;;23.90;61.20;;;;;;4885430;29;20021;-78
2023/08/13 08:57:49;;;;;;;0.00;0.00;;;23.80;61.30;;;;;;4885338;29;20033;-77
2023/08/13 09:00:15;;;;;;;0.00;0.00;;;23.30;61.90;;;;;;4894209;29;20024;-77
2023/08/13 09:02:43;;;;;;;0.00;0.00;;;23.10;63.30;;;;;;4892915;29;20025;-77
2023/08/13 09:05:09;;;;;;;0.10;0.10;;;23.20;63.70;;;;;;4885239;29;20025;-78
2023/08/13 09:07:34;;;;;;;0.10;0.10;;;23.40;64.30;;;;;;4884913;29;20108;-78
2023/08/13 09:10:04;;;;;;;0.10;0.10;;;24.20;62.70;;;;;;4885409;29;20104;-78
2023/08/13 09:12:40;;;;;;;0.10;0.10;;;24.30;61.70;;;;;;4868208;29;20025;-78
2023/08/13 09:15:07;;;;;;;0.10;0.10;;;24.40;60.80;;;;;;4885170;29;20029;-78
2023/08/13 09:17:33;;;;;;;0.05;0.05;;;24.30;60.80;;;;;;4867945;29;20039;-78
2023/08/13 09:20:07;;;;;;;0.00;0.00;;;24.00;59.80;;;;;;4868040;29;20061;-78
2023/08/13 09:22:34;;;;;;;0.00;0.00;;;23.80;61.00;;;;;;4867758;29;20060;-78
2023/08/13 09:25:03;;;;;;;0.10;0.10;;;23.90;60.70;;;;;;4884807;29;20036;-78
2023/08/13 09:27:29;;;;;;;0.10;0.10;;;24.00;61.10;;;;;;4909320;29;20032;-78
2023/08/13 09:29:57;;;;;;;0.10;0.10;;;24.20;60.60;;;;;;4922184;29;20020;-78
2023/08/13 09:32:22;;;;;;;0.10;0.10;;;24.30;60.20;;;;;;4913474;29;20056;-78
2023/08/13 09:34:51;;;;;;;0.10;0.10;;;24.60;59.00;;;;;;4903133;29;20025;-77
2023/08/13 09:37:17;;;;;;;0.20;0.20;;;25.00;57.90;;;;;;4900175;29;20444;-78
2023/08/13 09:39:42;;;;;;;0.08;0.08;;;25.90;56.90;;;;;;4903232;29;20021;-78
2023/08/13 09:42:08;;;;;;;0.00;0.00;;;26.70;54.80;;;;;;4903175;29;20032;-78
2023/08/13 09:44:34;;;;;;;0.10;0.10;;;26.50;55.00;;;;;;4903036;29;20024;-78
2023/08/13 09:47:06;;;;;;;0.10;0.10;;;27.10;53.10;;;;;;4902790;29;20116;-78
2023/08/13 09:49:33;;;;;;;0.10;0.10;;;27.10;51.60;;;;;;4902980;29;20488;-78
2023/08/13 09:52:01;;;;;;;0.55;0.55;;;27.70;49.90;;;;;;4903051;29;20025;-78
2023/08/13 09:54:47;;;;;;;0.20;0.20;;;27.90;49.20;;;;;;4902910;29;20365;-78
2023/08/13 09:57:15;;;;;;;0.40;0.40;;;28.10;48.50;;;;;;4903017;29;20037;-78
2023/08/13 09:59:41;;;;;;;0.10;0.10;;;28.70;48.40;;;;;;4902434;29;20035;-78
2023/08/13 10:02:08;;;;;;;0.10;0.10;;;28.20;48.40;;;;;;4896401;29;20033;-78
2023/08/13 10:04:38;;;;;;;0.10;0.10;;;28.30;49.20;;;;;;4867096;29;20033;-79
2023/08/13 10:07:05;;;;;;;0.10;0.10;;;28.20;48.20;;;;;;4867371;29;20555;-78
2023/08/13 10:09:32;;;;;;;0.10;0.10;;;27.90;49.50;;;;;;4867060;29;20041;-78
2023/08/13 10:11:58;;;;;;;0.00;0.00;;;27.60;48.50;;;;;;4884004;29;20036;-78
2023/08/13 10:14:24;;;;;;;0.03;0.03;;;27.30;49.90;;;;;;4884068;29;20027;-78
2023/08/13 10:16:50;;;;;;;0.00;0.00;;;27.00;49.70;;;;;;4889962;29;20519;-78
2023/08/13 10:19:17;;;;;;;0.00;0.00;;;26.80;51.00;;;;;;4894660;29;20044;-77
2023/08/13 10:21:55;;;;;;;0.00;0.00;;;26.10;51.90;;;;;;4885577;29;20028;-78
2023/08/13 10:24:20;;;;;;;0.00;0.00;;;25.80;52.60;;;;;;4902591;29;20028;-78
2023/08/13 10:26:46;;;;;;;0.00;0.00;;;25.50;53.30;;;;;;4902449;29;20057;-78
2023/08/13 10:29:19;;;;;;;0.00;0.00;;;25.30;53.10;;;;;;4902535;29;20157;-78
2023/08/13 10:31:49;;;;;;;0.10;0.10;;;24.80;54.40;;;;;;4885434;29;20052;-78
2023/08/13 10:34:16;;;;;;;0.00;0.00;;;25.30;55.10;;;;;;4885669;29;20103;-78
2023/08/13 10:36:55;;;;;;;0.00;0.00;;;25.30;54.00;;;;;;4885231;29;20028;-78
2023/08/13 10:39:36;;;;;;;0.00;0.00;;;25.30;55.00;;;;;;4902500;29;20028;-78
2023/08/13 10:42:04;;;;;;;0.00;0.00;;;25.00;54.40;;;;;;4902364;29;20027;-78
2023/08/13 10:44:31;;;;;;;0.00;0.00;;;24.60;54.20;;;;;;4902242;29;20064;-78
2023/08/13 10:46:58;;;;;;;0.00;0.00;;;24.30;54.70;;;;;;4902272;29;20025;-78
2023/08/13 10:49:25;;;;;;;0.00;0.00;;;24.30;55.40;;;;;;4902392;29;20029;-78
2023/08/13 10:51:52;;;;;;;0.00;0.00;;;24.50;55.70;;;;;;4902132;29;20029;-78
2023/08/13 10:54:18;;;;;;;0.00;0.00;;;24.60;55.40;;;;;;4902392;29;20036;-78
2023/08/13 10:56:51;;;;;;;0.00;0.00;;;24.60;54.70;;;;;;4902219;29;20029;-78
2023/08/13 10:59:17;;;;;;;0.00;0.00;;;24.50;53.90;;;;;;4902812;29;20072;-78
2023/08/13 11:02:22;;;;;;;0.00;0.00;;;24.40;52.60;;;;;;4902516;29;20044;-78
2023/08/13 11:04:47;;;;;;;0.05;0.05;;;24.40;52.30;;;;;;4886647;29;20045;-78
2023/08/13 11:07:14;;;;;;;0.10;0.10;;;24.50;55.30;;;;;;4902847;29;20189;-78
2023/08/13 11:09:42;;;;;;;0.00;0.00;;;24.80;53.10;;;;;;4906083;29;20111;-78
2023/08/13 11:12:09;;;;;;;0.00;0.00;;;25.00;52.80;;;;;;4905749;29;20028;-77
2023/08/13 11:14:36;;;;;;;0.00;0.00;;;25.10;52.90;;;;;;4905816;29;20514;-78
2023/08/13 11:17:02;;;;;;;0.00;0.00;;;25.20;51.90;;;;;;4905841;29;20025;-78
2023/08/13 11:19:28;;;;;;;0.10;0.10;;;24.90;52.00;;;;;;4905619;29;20047;-78
2023/08/13 11:21:55;;;;;;;0.05;0.05;;;24.90;52.90;;;;;;4905666;29;20025;-78
2023/08/13 11:24:21;;;;;;;0.10;0.10;;;25.20;51.60;;;;;;4905479;29;20033;-78
2023/08/13 11:26:49;;;;;;;0.00;0.00;;;25.40;51.70;;;;;;4911148;29;20027;-79
2023/08/13 11:29:21;;;;;;;0.10;0.10;;;25.60;52.60;;;;;;4924296;29;20507;-78
2023/08/13 11:31:47;;;;;;;0.13;0.10;;;25.60;50.70;;;;;;4920629;29;20048;-79
2023/08/13 11:34:18;;;;;;;0.10;0.10;;;25.60;50.10;;;;;;4888487;29;20123;-79
2023/08/13 11:36:49;;;;;;;0.08;0.08;;;25.70;50.40;;;;;;4888523;29;20033;-78
2023/08/13 11:39:17;;;;;;;0.00;0.00;;;25.70;50.60;;;;;;4905303;29;20522;-78
2023/08/13 11:41:44;;;;;;;0.00;0.00;;;25.80;50.00;;;;;;4905345;29;20028;-78
2023/08/13 11:44:10;;;;;;;0.00;0.00;;;25.70;50.30;;;;;;4901920;29;20016;-78
2023/08/13 11:46:56;;;;;;;0.00;0.00;;;25.60;51.40;;;;;;4905503;29;20395;-78
2023/08/13 11:49:22;;;;;;;0.10;0.10;;;25.40;50.50;;;;;;4905226;29;20123;-78
2023/08/13 11:51:49;;;;;;;0.00;0.00;;;25.40;51.40;;;;;;4887936;29;20036;-78
2023/08/13 11:54:18;;;;;;;0.10;0.10;;;25.40;51.50;;;;;;4888318;29;20135;-78
2023/08/13 11:56:43;;;;;;;0.03;0.03;;;25.20;50.30;;;;;;4905293;29;20129;-78
2023/08/13 11:59:09;;;;;;;0.00;0.00;;;25.20;50.20;;;;;;4905048;29;20475;-78
2023/08/13 12:01:37;;;;;;;0.00;0.00;;;25.00;51.00;;;;;;4902427;29;20415;-78
2023/08/13 12:04:05;;;;;;;0.10;0.10;;;25.10;51.00;;;;;;4886191;29;20025;-79
2023/08/13 12:06:34;;;;;;;0.00;0.00;;;25.20;51.90;;;;;;4886127;29;20021;-78
2023/08/13 12:09:00;;;;;;;0.10;0.10;;;25.40;53.00;;;;;;4886129;29;20021;-78
2023/08/13 12:11:25;;;;;;;0.03;0.03;;;25.40;52.50;;;;;;4869146;29;20125;-78
2023/08/13 12:13:51;;;;;;;0.00;0.00;;;25.60;52.90;;;;;;4869283;29;20069;-78
2023/08/13 12:16:16;;;;;;;0.10;0.10;;;25.50;52.40;;;;;;4869378;29;20025;-78
2023/08/13 12:18:42;;;;;;;0.00;0.00;;;25.40;52.40;;;;;;4869215;29;20029;-78
2023/08/13 12:21:08;;;;;;;0.00;0.00;;;25.30;52.50;;;;;;4869133;29;20033;-79
2023/08/13 12:23:34;;;;;;;0.10;0.10;;;25.30;53.10;;;;;;4885739;29;20025;-78
2023/08/13 12:26:01;;;;;;;0.08;0.08;;;25.50;51.90;;;;;;4885964;29;20110;-78
2023/08/13 12:28:27;;;;;;;0.00;0.00;;;25.40;51.40;;;;;;4885554;29;20124;-79
2023/08/13 12:30:53;;;;;;;0.00;0.00;;;25.30;51.60;;;;;;4868714;29;20052;-78
2023/08/13 12:33:19;;;;;;;0.08;0.08;;;25.20;51.50;;;;;;4885612;29;20037;-78
2023/08/13 12:35:44;;;;;;;0.00;0.00;;;25.20;52.10;;;;;;4886007;29;20033;-79
2023/08/13 12:38:10;;;;;;;0.10;0.10;;;25.10;51.80;;;;;;4885503;29;20118;-78
2023/08/13 12:40:36;;;;;;;0.10;0.10;;;25.10;52.20;;;;;;4885665;29;20084;-79
2023/08/13 12:43:02;;;;;;;0.10;0.10;;;25.60;52.70;;;;;;4885281;29;20040;-78
2023/08/13 12:45:28;;;;;;;0.10;0.10;;;26.10;52.90;;;;;;4869122;29;20042;-78
2023/08/13 12:47:53;;;;;;;0.00;0.00;;;26.00;50.10;;;;;;4885389;29;20033;-78
2023/08/13 12:50:19;;;;;;;0.10;0.10;;;25.80;50.70;;;;;;4868650;29;20495;-78
2023/08/13 12:52:45;;;;;;;0.10;0.10;;;25.60;51.40;;;;;;4885481;29;20031;-78
2023/08/13 12:55:10;;;;;;;0.00;0.00;;;25.50;51.20;;;;;;4885487;29;20480;-78
2023/08/13 12:57:36;;;;;;;0.00;0.00;;;25.60;52.30;;;;;;4885081;29;20025;-78
2023/08/13 13:00:03;;;;;;;0.10;0.10;;;25.50;52.80;;;;;;4889948;29;20029;-78
2023/08/13 13:02:29;;;;;;;0.10;0.10;;;25.50;51.50;;;;;;4903913;29;20063;-78
2023/08/13 13:04:54;;;;;;;0.10;0.10;;;25.80;52.10;;;;;;4903514;29;20032;-78
2023/08/13 13:07:20;;;;;;;0.00;0.00;;;25.90;52.80;;;;;;4893111;29;20025;-78
2023/08/13 13:09:47;;;;;;;0.10;0.10;;;26.00;53.00;;;;;;4904045;29;20035;-78
2023/08/13 13:12:12;;;;;;;0.10;0.10;;;26.10;51.90;;;;;;4903843;29;20031;-78
2023/08/13 13:14:38;;;;;;;0.00;0.00;;;25.90;50.80;;;;;;4903832;29;20084;-78
2023/08/13 13:17:03;;;;;;;0.10;0.10;;;25.80;52.80;;;;;;4903550;29;20029;-78
2023/08/13 13:19:29;;;;;;;0.10;0.10;;;25.80;52.60;;;;;;4903662;29;20029;-78
2023/08/13 13:21:55;;;;;;;0.10;0.10;;;25.80;52.00;;;;;;4902941;29;20092;-78
2023/08/13 13:24:20;;;;;;;0.03;0.03;;;25.70;51.30;;;;;;4903396;29;20033;-78
2023/08/13 13:26:46;;;;;;;0.00;0.00;;;25.80;51.30;;;;;;4904056;29;20036;-78
2023/08/13 13:29:12;;;;;;;0.05;0.05;;;25.70;51.90;;;;;;4922283;29;20071;-78
2023/08/13 13:31:38;;;;;;;0.00;0.00;;;25.70;51.70;;;;;;4919447;29;20071;-78
2023/08/13 13:34:03;;;;;;;0.00;0.00;;;25.70;51.70;;;;;;4903259;29;20084;-78
2023/08/13 13:36:29;;;;;;;0.10;0.10;;;25.70;51.70;;;;;;4903271;29;20034;-78
2023/08/13 13:38:54;;;;;;;0.10;0.10;;;25.80;50.30;;;;;;4903572;29;20033;-78
2023/08/13 13:41:20;;;;;;;0.10;0.10;;;25.80;51.60;;;;;;4903327;29;20029;-78
2023/08/13 13:43:45;;;;;;;0.00;0.00;;;25.50;50.70;;;;;;4903129;29;20496;-78
2023/08/13 13:46:11;;;;;;;0.08;0.08;;;25.60;52.40;;;;;;4903192;29;20024;-78
2023/08/13 13:48:37;;;;;;;0.00;0.00;;;25.60;52.40;;;;;;4899967;29;20028;-78
2023/08/13 13:51:02;;;;;;;0.00;0.00;;;25.40;52.40;;;;;;4886201;29;20027;-78
2023/08/13 13:53:28;;;;;;;0.00;0.00;;;25.20;52.50;;;;;;4902814;29;20064;-78
2023/08/13 13:55:53;;;;;;;0.10;0.10;;;25.30;52.60;;;;;;4902867;29;20048;-78
2023/08/13 13:58:19;;;;;;;0.00;0.00;;;25.40;52.30;;;;;;4886203;29;20043;-78
2023/08/13 14:00:45;;;;;;;0.00;0.00;;;25.30;51.40;;;;;;4885741;29;20049;-78
2023/08/13 14:03:10;;;;;;;0.00;0.00;;;25.00;51.90;;;;;;4888067;29;20033;-78
2023/08/13 14:05:36;;;;;;;0.10;0.10;;;25.00;51.30;;;;;;4884114;29;20032;-78
2023/08/13 14:08:01;;;;;;;0.08;0.08;;;25.20;51.90;;;;;;4884067;29;20054;-79
2023/08/13 14:10:27;;;;;;;0.10;0.10;;;25.60;51.10;;;;;;4884133;29;20025;-78
2023/08/13 14:12:53;;;;;;;0.10;0.10;;;25.90;52.50;;;;;;4884015;29;20025;-78
2023/08/13 14:15:18;;;;;;;0.03;0.03;;;26.00;51.50;;;;;;4883827;29;20029;-78
2023/08/13 14:17:44;;;;;;;0.00;0.00;;;26.00;49.00;;;;;;4884086;29;20069;-78
2023/08/13 14:20:10;;;;;;;0.10;0.10;;;26.10;50.40;;;;;;4883895;29;20025;-78
2023/08/13 14:22:35;;;;;;;0.00;0.00;;;26.00;50.10;;;;;;4883959;29;20040;-78
2023/08/13 14:25:01;;;;;;;0.00;0.00;;;25.80;49.70;;;;;;4883836;29;20033;-78
2023/08/13 14:27:27;;;;;;;0.10;0.10;;;25.70;50.10;;;;;;4883937;29;20033;-78
2023/08/13 14:29:52;;;;;;;0.00;0.00;;;25.70;49.50;;;;;;4866859;29;20021;-78
2023/08/13 14:32:22;;;;;;;0.00;0.00;;;25.70;50.00;;;;;;4883388;29;20382;-78
2023/08/13 14:34:50;;;;;;;0.00;0.00;;;25.40;50.00;;;;;;4866108;29;20488;-78
2023/08/13 14:37:16;;;;;;;0.10;0.10;;;25.30;50.70;;;;;;4883743;29;20057;-78
2023/08/13 14:39:42;;;;;;;0.10;0.10;;;25.30;52.00;;;;;;4883870;29;20041;-78
2023/08/13 14:42:08;;;;;;;0.10;0.10;;;25.60;52.00;;;;;;4866790;29;20065;-78
2023/08/13 14:44:34;;;;;;;0.10;0.10;;;25.70;50.90;;;;;;4883825;29;20025;-78
2023/08/13 14:46:59;;;;;;;0.10;0.10;;;26.00;50.70;;;;;;4883816;29;20505;-78
2023/08/13 14:49:25;;;;;;;0.10;0.10;;;26.20;50.20;;;;;;4883661;29;20044;-78
2023/08/13 14:51:50;;;;;;;0.10;0.10;;;26.30;50.00;;;;;;4883637;29;20017;-78
2023/08/13 14:54:16;;;;;;;0.10;0.10;;;26.50;50.60;;;;;;4883666;29;20037;-78
2023/08/13 14:56:42;;;;;;;0.20;0.10;;;26.60;47.20;;;;;;4883864;29;20025;-78
2023/08/13 14:59:07;;;;;;;0.00;0.00;;;26.10;48.10;;;;;;4883727;29;20477;-78
2023/08/13 15:01:33;;;;;;;0.00;0.00;;;25.60;49.50;;;;;;4899952;29;20039;-78
2023/08/13 15:03:59;;;;;;;0.00;0.00;;;25.30;50.60;;;;;;4902255;29;20583;-78
2023/08/13 15:06:24;;;;;;;0.10;0.10;;;25.20;51.10;;;;;;4902039;29;20025;-78
2023/08/13 15:08:50;;;;;;;0.10;0.10;;;25.00;50.60;;;;;;4902101;29;20596;-79
2023/08/13 15:11:16;;;;;;;0.10;0.10;;;25.10;51.80;;;;;;4902389;29;20025;-78
2023/08/13 15:13:41;;;;;;;0.00;0.00;;;25.50;50.20;;;;;;4904400;29;20044;-78
2023/08/13 15:16:07;;;;;;;0.00;0.00;;;26.00;49.80;;;;;;4902172;29;20029;-78
2023/08/13 15:18:32;;;;;;;0.10;0.10;;;26.00;50.00;;;;;;4902019;29;20043;-78
2023/08/13 15:20:58;;;;;;;0.10;0.10;;;25.90;49.70;;;;;;4902117;29;20053;-78
2023/08/13 15:23:24;;;;;;;0.00;0.00;;;26.00;48.70;;;;;;4900877;29;20032;-78
2023/08/13 15:25:49;;;;;;;0.00;0.00;;;25.90;49.40;;;;;;4902294;29;20020;-78
2023/08/13 15:28:15;;;;;;;0.00;0.00;;;25.90;50.10;;;;;;4914823;29;20039;-78
2023/08/13 15:30:40;;;;;;;0.10;0.10;;;25.80;49.90;;;;;;4920627;29;20079;-78
2023/08/13 15:33:06;;;;;;;0.00;0.00;;;25.80;49.40;;;;;;4906882;29;20035;-78
2023/08/13 15:35:50;;;;;;;0.00;0.00;;;25.50;49.00;;;;;;4901952;29;20020;-79
2023/08/13 15:38:15;;;;;;;0.00;0.00;;;25.10;50.10;;;;;;4884975;29;20024;-79
2023/08/13 15:40:41;;;;;;;0.10;0.10;;;25.30;50.50;;;;;;4902257;29;20036;-79
2023/08/13 15:43:07;;;;;;;0.10;0.10;;;25.50;50.10;;;;;;4901824;29;20032;-78
2023/08/13 15:45:32;;;;;;;0.08;0.08;;;25.70;50.40;;;;;;4885811;29;20060;-78
2023/08/13 15:47:58;;;;;;;0.05;0.05;;;25.60;50.50;;;;;;4905319;29;20111;-78
2023/08/13 15:50:23;;;;;;;0.00;0.00;;;25.50;50.30;;;;;;4886850;29;20029;-78
2023/08/13 15:52:50;;;;;;;0.00;0.00;;;25.20;49.90;;;;;;4886840;29;20045;-79
2023/08/13 15:55:16;;;;;;;0.00;0.00;;;25.10;50.20;;;;;;4904983;29;20084;-78
2023/08/13 15:57:42;;;;;;;0.10;0.10;;;24.90;50.90;;;;;;4905152;29;20029;-78
2023/08/13 16:00:08;;;;;;;0.00;0.00;;;25.00;49.90;;;;;;4905054;29;20048;-78
2023/08/13 16:02:34;;;;;;;0.00;0.00;;;25.20;50.50;;;;;;4900849;29;20091;-78
2023/08/13 16:05:00;;;;;;;0.00;0.00;;;24.90;49.40;;;;;;4897749;29;20108;-78
2023/08/13 16:07:26;;;;;;;0.00;0.00;;;25.20;50.30;;;;;;4904875;29;20020;-78
2023/08/13 16:09:52;;;;;;;0.00;0.00;;;25.20;49.00;;;;;;4905037;29;20024;-78
2023/08/13 16:12:17;;;;;;;0.00;0.00;;;25.10;49.50;;;;;;4904838;29;20084;-78
2023/08/13 16:14:43;;;;;;;0.00;0.00;;;25.00;50.50;;;;;;4904696;29;20032;-79
2023/08/13 16:17:08;;;;;;;0.00;0.00;;;24.90;50.60;;;;;;4904798;29;20036;-78
2023/08/13 16:19:36;;;;;;;0.00;0.00;;;24.80;49.60;;;;;;4904735;29;20033;-78
2023/08/13 16:22:01;;;;;;;0.00;0.00;;;24.70;50.30;;;;;;4904773;29;20611;-78
2023/08/13 16:24:27;;;;;;;0.00;0.00;;;24.70;51.30;;;;;;4904588;29;20100;-79
2023/08/13 16:26:53;;;;;;;0.00;0.00;;;24.80;51.30;;;;;;4904652;29;20032;-78
2023/08/13 16:29:18;;;;;;;0.00;0.00;;;25.00;50.30;;;;;;4887560;29;20384;-78
2023/08/13 16:31:44;;;;;;;0.10;0.10;;;25.20;49.90;;;;;;4904262;29;20056;-78
2023/08/13 16:34:09;;;;;;;0.10;0.10;;;25.20;49.90;;;;;;4904525;29;20025;-78
2023/08/13 16:36:37;;;;;;;0.00;0.00;;;25.30;49.90;;;;;;4904381;29;20040;-79
2023/08/13 16:39:03;;;;;;;0.00;0.00;;;25.30;50.20;;;;;;4904547;29;20077;-79
2023/08/13 16:41:28;;;;;;;0.05;0.05;;;25.10;49.70;;;;;;4904525;29;20032;-78
2023/08/13 16:43:54;;;;;;;0.00;0.00;;;25.00;49.50;;;;;;4904287;29;20028;-78
2023/08/13 16:46:19;;;;;;;0.00;0.00;;;24.90;49.50;;;;;;4904341;29;20494;-78
2023/08/13 16:48:45;;;;;;;0.08;0.08;;;24.90;50.20;;;;;;4887327;29;20056;-78
2023/08/13 16:51:11;;;;;;;0.10;0.10;;;24.80;49.90;;;;;;4904161;29;20029;-78
2023/08/13 16:53:37;;;;;;;0.00;0.00;;;24.90;50.50;;;;;;4886808;29;20032;-78
2023/08/13 16:56:02;;;;;;;0.00;0.00;;;24.80;50.20;;;;;;4887317;29;20089;-78
2023/08/13 16:58:28;;;;;;;0.00;0.00;;;24.80;50.90;;;;;;4903373;29;20024;-78
2023/08/13 17:00:54;;;;;;;0.00;0.00;;;24.70;51.20;;;;;;4887049;29;20104;-78
2023/08/13 17:03:20;;;;;;;0.00;0.00;;;24.40;50.70;;;;;;4887842;29;20116;-79
2023/08/13 17:05:46;;;;;;;0.00;0.00;;;24.40;50.90;;;;;;4885264;29;20068;-79
2023/08/13 17:08:11;;;;;;;0.00;0.00;;;24.40;51.30;;;;;;4868168;29;20473;-79
2023/08/13 17:10:37;;;;;;;0.00;0.00;;;24.30;51.40;;;;;;4885129;29;20033;-78
2023/08/13 17:13:03;;;;;;;0.00;0.00;;;24.10;51.80;;;;;;4884972;29;20032;-78
2023/08/13 17:15:29;;;;;;;0.00;0.00;;;24.00;52.10;;;;;;4885044;29;20036;-78